createdAt,value
2023-09-26T00:01:33.982Z,79.25
2023-09-26T00:03:35.844Z,79.14
2023-09-26T00:05:37.802Z,79.26
2023-09-26T00:07:40.247Z,79.26
2023-09-26T00:09:42.024Z,79.36
2023-09-26T00:11:43.763Z,79.36
2023-09-26T00:13:45.869Z,79.37
2023-09-26T00:15:47.614Z,79.11
2023-09-26T00:17:49.430Z,78.98
2023-09-26T00:19:51.221Z,78.96
2023-09-26T00:21:53.038Z,79.01
2023-09-26T00:23:54.793Z,79.03
2023-09-26T00:25:56.537Z,79.19
2023-09-26T00:27:58.837Z,79.22
2023-09-26T00:30:00.770Z,79.26
2023-09-26T00:32:02.924Z,79.39
2023-09-26T00:34:05.707Z,79.49
2023-09-26T00:36:11.970Z,79.63
2023-09-26T00:38:13.953Z,79.49
2023-09-26T00:40:20.042Z,79.49
2023-09-26T00:42:21.953Z,79.35
2023-09-26T00:44:23.682Z,79.25
2023-09-26T00:46:25.745Z,79.05
2023-09-26T00:48:27.966Z,79.19
2023-09-26T00:50:29.737Z,79.21
2023-09-26T00:52:32.023Z,79.32
2023-09-26T00:54:34.253Z,79.33
2023-09-26T00:56:36.560Z,79.15
2023-09-26T00:58:41.000Z,79.26
2023-09-26T01:00:43.288Z,79.11
2023-09-26T01:02:45.290Z,79.29
2023-09-26T01:04:47.344Z,79.45
2023-09-26T01:06:49.505Z,79.51
2023-09-26T01:08:51.309Z,79.81
2023-09-26T01:10:53.162Z,79.82
2023-09-26T01:12:54.955Z,79.50
2023-09-26T01:14:57.062Z,79.38
2023-09-26T01:16:58.874Z,79.43
2023-09-26T01:19:00.937Z,79.15
2023-09-26T01:21:02.829Z,79.36
2023-09-26T01:23:07.595Z,79.34
2023-09-26T01:25:09.671Z,79.25
2023-09-26T01:27:11.912Z,79.33
2023-09-26T01:29:13.796Z,79.24
2023-09-26T01:31:16.220Z,79.41
2023-09-26T01:33:18.881Z,79.28
2023-09-26T01:35:20.594Z,79.54
2023-09-26T01:37:22.491Z,79.63
2023-09-26T01:39:24.300Z,79.81
2023-09-26T01:41:26.854Z,79.74
2023-09-26T01:43:28.622Z,80.08
2023-09-26T01:45:30.375Z,80.23
2023-09-26T01:47:56.107Z,80.12
2023-09-26T01:49:57.882Z,79.70
2023-09-26T01:51:59.625Z,79.76
2023-09-26T01:54:01.442Z,79.96
2023-09-26T01:56:03.459Z,79.79
2023-09-26T01:58:05.333Z,79.73
2023-09-26T02:00:16.844Z,79.60
2023-09-26T02:02:18.596Z,79.51
2023-09-26T02:04:20.411Z,79.57
2023-09-26T02:06:23.029Z,79.32
2023-09-26T02:08:24.788Z,79.74
2023-09-26T02:10:26.646Z,79.63
2023-09-26T02:12:28.511Z,79.80
2023-09-26T02:14:30.383Z,79.54
2023-09-26T02:16:32.205Z,79.47
2023-09-26T02:18:33.964Z,79.57
2023-09-26T02:20:35.715Z,79.73
2023-09-26T02:22:37.599Z,79.68
2023-09-26T02:24:39.311Z,79.69
2023-09-26T02:26:41.267Z,79.95
2023-09-26T02:28:43.021Z,79.83
2023-09-26T02:30:44.764Z,79.51
2023-09-26T02:32:46.981Z,79.50
2023-09-26T02:34:48.766Z,79.42
2023-09-26T02:36:51.239Z,79.45
2023-09-26T02:38:53.081Z,79.55
2023-09-26T02:40:54.792Z,79.57
2023-09-26T02:42:57.060Z,79.47
2023-09-26T02:44:58.786Z,79.41
2023-09-26T02:47:00.588Z,79.76
2023-09-26T02:49:02.369Z,80.22
2023-09-26T02:51:05.352Z,80.62
2023-09-26T02:53:07.266Z,81.05
2023-09-26T02:55:09.455Z,81.22
2023-09-26T02:57:11.211Z,81.05
2023-09-26T02:59:12.949Z,81.29
2023-09-26T03:01:18.928Z,81.37
2023-09-26T03:03:20.720Z,81.12
2023-09-26T03:05:22.479Z,81.15
2023-09-26T03:07:24.395Z,81.05
2023-09-26T03:09:26.208Z,81.22
2023-09-26T03:11:28.024Z,81.30
2023-09-26T03:13:34.167Z,81.17
2023-09-26T03:15:36.220Z,81.07
2023-09-26T03:17:38.178Z,80.90
2023-09-26T03:19:40.042Z,81.33
2023-09-26T03:21:41.834Z,81.01
2023-09-26T03:23:43.735Z,81.13
2023-09-26T03:25:45.519Z,81.66
2023-09-26T03:27:48.387Z,82.36
2023-09-26T03:29:53.229Z,83.13
2023-09-26T03:31:55.050Z,83.35
2023-09-26T03:33:56.805Z,83.21
2023-09-26T03:35:58.586Z,83.64
2023-09-26T03:38:00.328Z,83.60
2023-09-26T03:40:02.615Z,83.46
2023-09-26T03:42:04.435Z,83.44
2023-09-26T03:44:06.232Z,83.60
2023-09-26T03:46:09.361Z,83.41
2023-09-26T03:48:11.294Z,83.43
2023-09-26T03:50:13.178Z,83.56
2023-09-26T03:52:14.935Z,83.13
2023-09-26T03:54:16.728Z,82.52
2023-09-26T03:56:18.506Z,81.75
2023-09-26T03:58:20.291Z,82.11
2023-09-26T04:00:27.113Z,82.01
2023-09-26T04:02:29.741Z,82.25
2023-09-26T04:04:33.081Z,82.32
2023-09-26T04:06:35.051Z,82.63
2023-09-26T04:08:37.124Z,82.91
2023-09-26T04:10:40.035Z,82.90
2023-09-26T04:12:41.858Z,82.82
2023-09-26T04:14:43.572Z,82.34
2023-09-26T04:16:45.297Z,82.18
2023-09-26T04:18:47.574Z,81.59
2023-09-26T04:20:51.848Z,81.34
2023-09-26T04:22:53.581Z,81.34
2023-09-26T04:24:55.437Z,81.68
2023-09-26T04:26:57.293Z,82.07
2023-09-26T04:28:59.205Z,82.56
2023-09-26T04:31:01.032Z,82.51
2023-09-26T04:33:02.845Z,82.55
2023-09-26T04:35:05.257Z,82.74
2023-09-26T04:37:09.041Z,82.54
2023-09-26T04:39:10.855Z,82.32
2023-09-26T04:41:14.525Z,82.15
2023-09-26T04:43:16.695Z,82.43
2023-09-26T04:45:18.515Z,82.65
2023-09-26T04:47:21.263Z,82.58
2023-09-26T04:49:23.107Z,83.14
2023-09-26T04:51:25.115Z,82.89
2023-09-26T04:53:27.109Z,82.45
2023-09-26T04:55:28.938Z,82.72
2023-09-26T04:57:30.813Z,82.49
2023-09-26T04:59:32.531Z,82.21
2023-09-26T05:01:34.458Z,81.47
2023-09-26T05:03:36.414Z,81.37
2023-09-26T05:05:38.230Z,81.08
2023-09-26T05:07:43.025Z,81.78
2023-09-26T05:09:45.351Z,82.86
2023-09-26T05:11:47.072Z,83.56
2023-09-26T05:13:49.282Z,83.96
2023-09-26T05:15:51.214Z,84.06
2023-09-26T05:17:53.540Z,84.13
2023-09-26T05:19:55.369Z,84.80
2023-09-26T05:21:57.256Z,84.88
2023-09-26T05:23:59.008Z,84.66
2023-09-26T05:26:09.107Z,85.31
2023-09-26T05:28:10.901Z,85.12
2023-09-26T05:30:14.527Z,85.13
2023-09-26T05:32:16.304Z,85.26
2023-09-26T05:34:18.253Z,84.83
2023-09-26T05:36:19.972Z,84.65
2023-09-26T05:38:21.700Z,84.83
2023-09-26T05:40:23.478Z,85.16
2023-09-26T05:42:25.469Z,85.54
2023-09-26T05:44:27.241Z,85.68
2023-09-26T05:46:29.000Z,85.60
2023-09-26T05:48:31.263Z,86.12
2023-09-26T05:50:33.091Z,86.09
2023-09-26T05:52:35.235Z,85.57
2023-09-26T05:54:37.495Z,85.77
2023-09-26T05:56:39.205Z,86.21
2023-09-26T05:58:40.918Z,86.31
2023-09-26T06:00:43.981Z,87.52
2023-09-26T06:02:46.515Z,87.33
2023-09-26T06:04:48.454Z,87.77
2023-09-26T06:06:50.711Z,87.91
2023-09-26T06:08:53.691Z,88.17
2023-09-26T06:10:57.380Z,88.10
2023-09-26T06:12:59.171Z,87.98
2023-09-26T06:15:00.930Z,88.21
2023-09-26T06:17:02.836Z,88.74
2023-09-26T06:19:04.686Z,88.31
2023-09-26T06:21:08.325Z,87.97
2023-09-26T06:23:10.193Z,87.67
2023-09-26T06:25:12.297Z,86.84
2023-09-26T06:27:14.145Z,87.42
2023-09-26T06:29:15.883Z,87.80
2023-09-26T06:31:17.969Z,86.95
2023-09-26T06:33:20.549Z,86.66
2023-09-26T06:35:22.406Z,84.84
2023-09-26T06:37:24.351Z,85.21
2023-09-26T06:39:26.114Z,85.35
2023-09-26T06:41:27.861Z,86.13
2023-09-26T06:43:31.053Z,86.71
2023-09-26T06:45:32.803Z,87.88
2023-09-26T06:47:35.211Z,88.37
2023-09-26T06:49:37.029Z,88.65
2023-09-26T06:51:38.890Z,88.96
2023-09-26T06:53:40.657Z,89.08
2023-09-26T06:55:42.607Z,89.26
2023-09-26T06:57:44.397Z,88.74
2023-09-26T06:59:52.827Z,88.05
2023-09-26T07:01:54.559Z,88.29
2023-09-26T07:03:56.397Z,88.46
2023-09-26T07:05:58.281Z,88.67
2023-09-26T07:07:59.987Z,88.93
2023-09-26T07:10:03.323Z,88.60
2023-09-26T07:12:05.367Z,87.95
2023-09-26T07:14:08.667Z,88.25
2023-09-26T07:16:10.748Z,88.31
2023-09-26T07:18:13.799Z,88.36
2023-09-26T07:20:16.249Z,87.82
2023-09-26T07:22:18.064Z,84.64
2023-09-26T07:24:20.017Z,83.97
2023-09-26T07:26:22.512Z,82.66
2023-09-26T07:28:24.610Z,82.31
2023-09-26T07:30:26.744Z,81.38
2023-09-26T07:32:28.656Z,84.37
2023-09-26T07:34:30.412Z,85.06
2023-09-26T07:36:33.568Z,85.43
2023-09-26T07:38:35.786Z,85.30
2023-09-26T07:40:38.358Z,85.62
2023-09-26T07:42:41.718Z,85.68
2023-09-26T07:44:43.487Z,84.11
2023-09-26T07:46:45.484Z,83.46
2023-09-26T07:48:47.281Z,81.41
2023-09-26T07:50:49.030Z,81.89
2023-09-26T07:52:50.776Z,81.86
2023-09-26T07:54:52.554Z,82.69
2023-09-26T07:56:54.299Z,79.75
2023-09-26T07:58:56.047Z,77.60
2023-09-26T08:01:00.511Z,76.69
2023-09-26T08:03:02.538Z,77.83
2023-09-26T08:05:04.480Z,78.24
2023-09-26T08:07:06.341Z,78.91
2023-09-26T08:09:08.182Z,75.45
2023-09-26T08:11:11.908Z,74.76
2023-09-26T08:13:16.171Z,74.73
2023-09-26T08:15:17.972Z,77.51
2023-09-26T08:17:19.740Z,76.77
2023-09-26T08:19:21.710Z,77.28
2023-09-26T08:21:25.237Z,78.43
2023-09-26T08:23:27.281Z,79.90
2023-09-26T08:25:30.961Z,80.90
2023-09-26T08:27:33.348Z,81.77
2023-09-26T08:29:35.079Z,81.92
2023-09-26T08:31:37.602Z,82.21
2023-09-26T08:33:39.510Z,82.72
2023-09-26T08:35:41.335Z,82.87
2023-09-26T08:37:43.289Z,82.79
2023-09-26T08:39:45.292Z,82.69
2023-09-26T08:41:48.652Z,81.41
2023-09-26T08:43:51.510Z,79.42
2023-09-26T08:45:54.310Z,79.86
2023-09-26T08:47:59.571Z,80.34
2023-09-26T08:50:01.411Z,80.38
2023-09-26T08:52:06.283Z,80.26
2023-09-26T08:54:09.119Z,79.13
2023-09-26T08:56:10.954Z,76.07
2023-09-26T08:58:14.822Z,77.03
2023-09-26T09:00:18.796Z,77.40
2023-09-26T09:02:20.748Z,78.47
2023-09-26T09:04:22.712Z,77.32
2023-09-26T09:06:24.768Z,77.64
2023-09-26T09:08:26.647Z,75.35
2023-09-26T09:10:28.378Z,74.59
2023-09-26T09:12:30.289Z,73.39
2023-09-26T09:14:34.331Z,73.56
2023-09-26T09:16:36.703Z,74.40
2023-09-26T09:18:39.949Z,74.69
2023-09-26T09:20:41.787Z,75.24
2023-09-26T09:22:50.484Z,73.64
2023-09-26T09:24:56.095Z,73.34
2023-09-26T09:26:57.888Z,74.60
2023-09-26T09:29:19.996Z,74.25
2023-09-26T09:31:23.559Z,74.01
2023-09-26T09:33:29.539Z,74.64
2023-09-26T09:35:31.350Z,74.64
2023-09-26T09:37:33.138Z,74.49
2023-09-26T09:39:34.846Z,74.23
2023-09-26T09:41:41.168Z,73.26
2023-09-26T09:43:42.967Z,72.30
2023-09-26T09:45:48.884Z,71.16
2023-09-26T09:47:50.951Z,71.54
2023-09-26T09:49:53.460Z,72.06
2023-09-26T09:51:58.499Z,71.91
2023-09-26T09:54:01.965Z,71.80
2023-09-26T09:56:08.475Z,72.17
2023-09-26T09:58:13.873Z,71.87
2023-09-26T10:00:17.062Z,72.56
2023-09-26T10:02:19.127Z,72.02
2023-09-26T10:04:23.032Z,72.41
2023-09-26T10:06:25.134Z,72.49
2023-09-26T10:08:28.619Z,71.96
2023-09-26T10:10:31.515Z,71.41
2023-09-26T10:12:35.369Z,71.44
2023-09-26T10:14:37.246Z,72.07
2023-09-26T10:16:39.115Z,72.46
2023-09-26T10:18:41.596Z,72.49
2023-09-26T10:20:52.270Z,70.63
2023-09-26T10:23:11.249Z,69.89
2023-09-26T10:25:20.593Z,68.22
2023-09-26T10:27:58.376Z,65.13
2023-09-26T10:30:05.208Z,64.50
2023-09-26T10:32:09.296Z,65.11
2023-09-26T10:34:11.211Z,66.78
2023-09-26T10:36:13.972Z,67.23
2023-09-26T10:38:20.325Z,66.98
2023-09-26T10:40:22.202Z,65.91
2023-09-26T10:44:51.670Z,62.20
2023-09-26T10:46:55.032Z,61.74
2023-09-26T10:49:00.105Z,61.16
2023-09-26T10:51:02.246Z,61.96
2023-09-26T10:53:04.313Z,61.74
2023-09-26T10:55:06.665Z,59.96
2023-09-26T10:57:24.861Z,59.04
2023-09-26T10:59:36.549Z,56.06
2023-09-26T11:01:39.313Z,55.24
2023-09-26T11:03:41.988Z,54.77
2023-09-26T11:05:45.497Z,53.93
2023-09-26T11:10:14.986Z,47.31
2023-09-26T11:12:16.838Z,47.11
2023-09-26T11:14:19.057Z,47.31
2023-09-26T11:16:20.895Z,46.06
2023-09-26T11:18:23.302Z,46.34
2023-09-26T11:20:28.112Z,45.83
2023-09-26T11:22:30.060Z,45.27
2023-09-26T11:24:32.881Z,44.99
2023-09-26T11:26:34.738Z,46.29
2023-09-26T11:28:36.853Z,44.53
2023-09-26T11:30:40.334Z,41.23
2023-09-26T11:32:44.115Z,41.46
2023-09-26T11:34:46.166Z,40.82
2023-09-26T11:36:52.285Z,41.55
2023-09-26T11:38:54.636Z,40.34
2023-09-26T11:40:56.563Z,41.48
2023-09-26T11:43:01.968Z,39.97
2023-09-26T11:45:04.583Z,41.21
2023-09-26T11:47:09.621Z,40.38
2023-09-26T11:49:16.712Z,39.88
2023-09-26T11:51:19.663Z,37.17
2023-09-26T11:53:22.537Z,36.68
2023-09-26T11:55:24.348Z,36.43
2023-09-26T11:57:26.158Z,36.35
2023-09-26T11:59:27.880Z,36.98
2023-09-26T12:01:30.259Z,36.59
2023-09-26T12:03:32.120Z,36.70
2023-09-26T12:05:33.975Z,35.85
2023-09-26T12:07:36.641Z,36.02
2023-09-26T12:09:38.423Z,37.18
2023-09-26T12:11:40.158Z,37.51
2023-09-26T12:13:41.953Z,36.75
2023-09-26T12:15:43.748Z,38.85
2023-09-26T12:17:45.609Z,38.61
2023-09-26T12:19:47.501Z,39.99
2023-09-26T12:21:49.805Z,40.85
2023-09-26T12:23:52.126Z,40.47
2023-09-26T12:25:53.941Z,39.84
2023-09-26T12:27:55.748Z,41.12
2023-09-26T12:29:57.516Z,38.94
2023-09-26T12:31:59.967Z,40.54
2023-09-26T12:34:03.620Z,41.97
2023-09-26T12:36:05.678Z,42.73
2023-09-26T12:38:07.568Z,43.50
2023-09-26T12:40:10.002Z,45.80
2023-09-26T12:42:14.679Z,45.42
2023-09-26T12:44:16.570Z,46.07
2023-09-26T12:46:18.363Z,46.31
2023-09-26T12:48:21.187Z,45.03
2023-09-26T12:50:23.000Z,46.42
2023-09-26T12:52:28.336Z,45.88
2023-09-26T12:54:30.165Z,46.41
2023-09-26T12:56:31.896Z,46.80
2023-09-26T12:58:33.648Z,46.27
2023-09-26T13:00:36.238Z,47.81
2023-09-26T13:02:42.211Z,47.01
2023-09-26T13:04:44.205Z,45.99
2023-09-26T13:06:45.956Z,46.30
2023-09-26T13:08:47.682Z,45.65
2023-09-26T13:10:49.450Z,46.70
2023-09-26T13:12:51.366Z,47.14
2023-09-26T13:14:53.266Z,47.62
2023-09-26T13:16:55.039Z,47.20
2023-09-26T13:18:58.622Z,46.70
2023-09-26T13:21:00.414Z,48.33
2023-09-26T13:23:04.879Z,48.07
2023-09-26T13:25:08.177Z,47.91
2023-09-26T13:27:10.083Z,47.61
2023-09-26T13:29:11.952Z,48.11
2023-09-26T13:31:13.842Z,46.20
2023-09-26T13:33:16.022Z,46.65
2023-09-26T13:35:17.871Z,46.56
2023-09-26T13:37:19.659Z,48.42
2023-09-26T13:39:23.488Z,48.63
2023-09-26T13:41:25.352Z,49.14
2023-09-26T13:43:27.065Z,49.71
2023-09-26T13:45:28.896Z,48.00
2023-09-26T13:47:30.795Z,46.47
2023-09-26T13:49:32.738Z,47.68
2023-09-26T13:51:35.063Z,48.53
2023-09-26T13:53:36.793Z,46.51
2023-09-26T13:55:38.592Z,46.87
2023-09-26T13:57:40.608Z,48.52
2023-09-26T13:59:42.420Z,47.25
2023-09-26T14:01:44.288Z,47.09
2023-09-26T14:03:47.231Z,48.17
2023-09-26T14:05:49.151Z,48.22
2023-09-26T14:07:51.293Z,50.29
2023-09-26T14:09:53.039Z,49.72
2023-09-26T14:11:54.852Z,51.61
2023-09-26T14:13:56.900Z,50.82
2023-09-26T14:15:58.679Z,50.42
2023-09-26T14:18:00.715Z,49.31
2023-09-26T14:20:02.737Z,49.64
2023-09-26T14:22:04.536Z,47.43
2023-09-26T14:24:06.801Z,48.50
2023-09-26T14:26:11.317Z,49.41
2023-09-26T14:28:13.133Z,50.06
2023-09-26T14:30:15.131Z,48.00
2023-09-26T14:32:17.030Z,48.74
2023-09-26T14:34:19.103Z,49.86
2023-09-26T14:36:20.992Z,47.76
2023-09-26T14:38:22.835Z,47.64
2023-09-26T14:40:24.597Z,49.08
2023-09-26T14:42:26.560Z,48.98
2023-09-26T14:44:28.997Z,49.15
2023-09-26T14:46:32.310Z,49.57
2023-09-26T14:48:34.143Z,50.30
2023-09-26T14:50:36.188Z,50.30
2023-09-26T14:52:38.619Z,47.33
2023-09-26T14:54:40.394Z,47.94
2023-09-26T14:56:43.913Z,49.63
2023-09-26T14:58:50.251Z,48.55
2023-09-26T15:00:52.155Z,49.96
2023-09-26T15:02:54.065Z,50.42
2023-09-26T15:04:55.920Z,51.30
2023-09-26T15:06:57.672Z,51.96
2023-09-26T15:08:59.483Z,51.00
2023-09-26T15:11:03.638Z,51.78
2023-09-26T15:13:07.862Z,51.83
2023-09-26T15:15:10.123Z,52.37
2023-09-26T15:17:12.270Z,52.98
2023-09-26T15:19:14.066Z,53.52
2023-09-26T15:21:15.877Z,53.69
2023-09-26T15:23:17.717Z,53.28
2023-09-26T15:25:19.486Z,53.24
2023-09-26T15:27:21.233Z,53.02
2023-09-26T15:29:23.090Z,53.39
2023-09-26T15:31:25.006Z,53.51
2023-09-26T15:33:26.806Z,54.98
2023-09-26T15:35:28.624Z,55.41
2023-09-26T15:37:30.456Z,56.60
2023-09-26T15:39:33.202Z,57.04
2023-09-26T15:41:34.980Z,58.14
2023-09-26T15:43:37.224Z,58.10
2023-09-26T15:45:40.559Z,59.37
2023-09-26T15:47:42.535Z,59.71
2023-09-26T15:49:50.383Z,59.65
2023-09-26T15:51:52.434Z,59.68
2023-09-26T15:53:54.168Z,58.95
2023-09-26T15:55:55.904Z,58.45
2023-09-26T15:57:57.687Z,58.30
2023-09-26T15:59:59.532Z,59.41
2023-09-26T16:02:02.878Z,59.12
2023-09-26T16:04:06.154Z,59.11
2023-09-26T16:06:07.976Z,58.65
2023-09-26T16:08:11.103Z,58.92
2023-09-26T16:10:15.473Z,58.58
2023-09-26T16:12:17.192Z,58.69
2023-09-26T16:14:19.025Z,59.56
2023-09-26T16:16:21.137Z,60.09
2023-09-26T16:18:22.884Z,61.28
2023-09-26T16:20:24.586Z,62.89
2023-09-26T16:22:26.417Z,62.75
2023-09-26T16:24:28.217Z,63.43
2023-09-26T16:26:30.239Z,63.31
2023-09-26T16:28:32.216Z,63.71
2023-09-26T16:30:34.061Z,64.60
2023-09-26T16:32:36.034Z,64.32
2023-09-26T16:34:38.165Z,65.05
2023-09-26T16:36:44.753Z,64.94
2023-09-26T16:38:47.071Z,64.71
2023-09-26T16:40:48.852Z,65.14
2023-09-26T16:42:50.924Z,65.88
2023-09-26T16:44:52.729Z,66.23
2023-09-26T16:46:54.643Z,67.04
2023-09-26T16:48:56.579Z,66.89
2023-09-26T16:50:58.426Z,66.58
2023-09-26T16:53:01.826Z,65.66
2023-09-26T16:55:04.649Z,65.97
2023-09-26T16:57:06.435Z,66.01
2023-09-26T16:59:08.420Z,66.21
2023-09-26T17:01:13.890Z,66.78
2023-09-26T17:03:15.737Z,67.50
2023-09-26T17:05:18.915Z,68.63
2023-09-26T17:07:22.671Z,69.31
2023-09-26T17:09:25.368Z,69.22
2023-09-26T17:11:27.258Z,70.36
2023-09-26T17:13:29.197Z,70.16
2023-09-26T17:15:31.081Z,70.63
2023-09-26T17:17:33.019Z,70.95
2023-09-26T17:19:36.649Z,71.48
2023-09-26T17:21:38.643Z,71.53
2023-09-26T17:23:41.071Z,71.96
2023-09-26T17:25:43.021Z,72.17
2023-09-26T17:27:44.872Z,72.43
2023-09-26T17:29:46.680Z,72.74
2023-09-26T17:31:48.607Z,72.41
2023-09-26T17:33:50.456Z,72.66
2023-09-26T17:35:52.195Z,73.04
2023-09-26T17:37:54.165Z,73.16
2023-09-26T17:39:55.949Z,72.44
2023-09-26T17:41:57.698Z,72.10
2023-09-26T17:44:00.149Z,72.11
2023-09-26T17:46:02.067Z,72.48
2023-09-26T17:48:04.406Z,71.99
2023-09-26T17:50:07.115Z,72.26
2023-09-26T17:52:09.038Z,72.93
2023-09-26T17:54:10.864Z,73.47
2023-09-26T17:56:12.661Z,73.37
2023-09-26T17:58:14.528Z,73.55
2023-09-26T18:00:16.535Z,73.86
2023-09-26T18:02:18.332Z,74.06
2023-09-26T18:04:20.093Z,74.33
2023-09-26T18:06:22.315Z,74.25
2023-09-26T18:08:24.083Z,74.52
2023-09-26T18:10:25.869Z,74.44
2023-09-26T18:12:27.615Z,74.30
2023-09-26T18:14:30.202Z,74.94
2023-09-26T18:16:32.090Z,75.26
2023-09-26T18:18:34.083Z,74.64
2023-09-26T18:20:35.822Z,74.32
2023-09-26T18:22:37.690Z,74.15
2023-09-26T18:24:39.436Z,74.17
2023-09-26T18:26:41.203Z,74.45
2023-09-26T18:28:43.028Z,74.22
2023-09-26T18:30:45.757Z,74.73
2023-09-26T18:32:47.576Z,74.86
2023-09-26T18:34:49.562Z,74.77
2023-09-26T18:36:51.376Z,75.12
2023-09-26T18:38:53.120Z,75.49
2023-09-26T18:40:54.922Z,75.50
2023-09-26T18:42:56.841Z,75.86
2023-09-26T18:44:58.611Z,75.27
2023-09-26T18:47:00.395Z,75.75
2023-09-26T18:49:02.428Z,75.84
2023-09-26T18:51:05.054Z,75.87
2023-09-26T18:53:07.780Z,76.13
2023-09-26T18:55:10.116Z,75.82
2023-09-26T18:57:11.844Z,76.05
2023-09-26T18:59:13.623Z,76.01
2023-09-26T19:01:15.807Z,75.94
2023-09-26T19:03:17.731Z,76.15
2023-09-26T19:05:19.794Z,75.86
2023-09-26T19:07:21.705Z,76.08
2023-09-26T19:09:23.761Z,76.20
2023-09-26T19:11:25.529Z,75.85
2023-09-26T19:13:27.248Z,75.74
2023-09-26T19:15:29.120Z,76.02
2023-09-26T19:17:30.914Z,75.68
2023-09-26T19:19:32.875Z,75.38
2023-09-26T19:21:35.196Z,75.27
2023-09-26T19:23:37.137Z,75.11
2023-09-26T19:25:39.043Z,75.04
2023-09-26T19:27:40.861Z,74.96
2023-09-26T19:29:44.211Z,74.46
2023-09-26T19:31:46.057Z,74.73
2023-09-26T19:33:48.824Z,74.53
2023-09-26T19:35:50.655Z,74.58
2023-09-26T19:37:52.451Z,74.82
2023-09-26T19:39:54.218Z,74.78
2023-09-26T19:41:56.078Z,75.23
2023-09-26T19:43:57.954Z,75.50
2023-09-26T19:46:01.254Z,75.56
2023-09-26T19:48:03.172Z,75.34
2023-09-26T19:50:06.948Z,75.68
2023-09-26T19:52:08.781Z,75.71
2023-09-26T19:54:10.765Z,76.24
2023-09-26T19:56:12.488Z,76.37
2023-09-26T19:58:14.453Z,76.35
2023-09-26T20:00:16.995Z,76.11
2023-09-26T20:02:18.777Z,76.15
2023-09-26T20:04:20.651Z,75.83
2023-09-26T20:06:22.659Z,76.17
2023-09-26T20:08:24.971Z,75.97
2023-09-26T20:10:26.820Z,76.17
2023-09-26T20:12:28.679Z,76.32
2023-09-26T20:14:30.520Z,76.41
2023-09-26T20:16:32.340Z,76.52
2023-09-26T20:18:34.161Z,76.93
2023-09-26T20:20:35.891Z,76.62
2023-09-26T20:22:38.821Z,76.97
2023-09-26T20:24:40.586Z,76.76
2023-09-26T20:26:42.307Z,76.80
2023-09-26T20:28:45.274Z,77.40
2023-09-26T20:30:47.919Z,77.11
2023-09-26T20:32:49.742Z,77.25
2023-09-26T20:34:51.501Z,77.04
2023-09-26T20:36:53.239Z,77.39
2023-09-26T20:38:55.285Z,77.22
2023-09-26T20:41:09.509Z,77.23
2023-09-26T20:43:11.366Z,77.40
2023-09-26T20:45:13.113Z,77.41
2023-09-26T20:47:15.055Z,77.38
2023-09-26T20:49:17.069Z,77.51
2023-09-26T20:51:19.153Z,77.50
2023-09-26T20:53:21.689Z,77.55
2023-09-26T20:55:23.532Z,77.47
2023-09-26T20:57:25.292Z,77.72
2023-09-26T20:59:27.048Z,77.63
2023-09-26T21:01:28.912Z,77.62
2023-09-26T21:03:30.793Z,77.75
2023-09-26T21:05:39.605Z,77.46
2023-09-26T21:07:41.217Z,76.96
2023-09-26T21:09:42.995Z,77.47
2023-09-26T21:11:45.008Z,77.31
2023-09-26T21:13:46.800Z,77.66
2023-09-26T21:15:48.538Z,77.77
2023-09-26T21:17:51.286Z,77.61
2023-09-26T21:19:53.125Z,77.66
2023-09-26T21:21:55.471Z,77.76
2023-09-26T21:23:57.853Z,77.68
2023-09-26T21:25:59.804Z,77.90
2023-09-26T21:28:02.141Z,77.60
2023-09-26T21:30:05.649Z,77.51
2023-09-26T21:32:08.901Z,77.69
2023-09-26T21:34:10.994Z,77.61
2023-09-26T21:36:13.559Z,77.86
2023-09-26T21:38:15.351Z,77.70
2023-09-26T21:40:17.306Z,77.76
2023-09-26T21:42:19.031Z,77.75
2023-09-26T21:44:20.882Z,77.64
2023-09-26T21:46:22.664Z,77.74
2023-09-26T21:48:24.606Z,77.65
2023-09-26T21:50:26.482Z,77.73
2023-09-26T21:52:28.317Z,77.49
2023-09-26T21:54:30.030Z,77.62
2023-09-26T21:56:31.858Z,77.20
2023-09-26T21:58:33.613Z,77.27
2023-09-26T22:00:35.404Z,77.48
2023-09-26T22:02:38.087Z,77.51
2023-09-26T22:04:44.608Z,77.40
2023-09-26T22:06:46.486Z,77.24
2023-09-26T22:08:48.261Z,77.00
2023-09-26T22:10:50.277Z,77.51
2023-09-26T22:12:52.188Z,77.70
2023-09-26T22:14:53.958Z,77.94
2023-09-26T22:16:56.257Z,78.22
2023-09-26T22:18:57.984Z,78.08
2023-09-26T22:21:01.618Z,78.18
2023-09-26T22:23:03.469Z,77.66
2023-09-26T22:25:07.017Z,77.81
2023-09-26T22:27:08.844Z,77.80
2023-09-26T22:29:10.601Z,77.60
2023-09-26T22:31:12.452Z,77.60
2023-09-26T22:33:14.721Z,77.36
2023-09-26T22:35:16.588Z,77.26
2023-09-26T22:37:18.426Z,77.00
2023-09-26T22:39:20.921Z,77.32
2023-09-26T22:41:22.657Z,77.08
2023-09-26T22:43:24.744Z,77.42
2023-09-26T22:45:26.461Z,77.53
2023-09-26T22:47:29.611Z,77.54
2023-09-26T22:49:31.774Z,77.44
2023-09-26T22:51:34.407Z,77.79
2023-09-26T22:53:36.966Z,77.98
2023-09-26T22:55:40.118Z,78.04
2023-09-26T22:57:41.932Z,77.54
2023-09-26T22:59:43.674Z,77.36
2023-09-26T23:01:46.998Z,77.59
2023-09-26T23:03:48.987Z,77.38
2023-09-26T23:05:50.970Z,77.26
2023-09-26T23:07:52.692Z,76.95
2023-09-26T23:09:54.545Z,77.24
2023-09-26T23:11:56.338Z,77.26
2023-09-26T23:13:58.062Z,77.48
2023-09-26T23:15:59.830Z,77.94
2023-09-26T23:18:01.681Z,78.52
2023-09-26T23:20:06.464Z,78.97
2023-09-26T23:22:08.301Z,79.28
2023-09-26T23:24:10.551Z,79.45
2023-09-26T23:26:12.491Z,78.98
2023-09-26T23:28:16.524Z,78.79
2023-09-26T23:30:18.904Z,78.18
2023-09-26T23:32:22.985Z,78.03
2023-09-26T23:34:25.563Z,78.05
2023-09-26T23:36:27.958Z,78.38
2023-09-26T23:38:30.320Z,78.41
2023-09-26T23:40:32.188Z,78.47
2023-09-26T23:42:35.417Z,78.83
2023-09-26T23:44:37.152Z,79.17
2023-09-26T23:46:39.390Z,78.91
2023-09-26T23:48:41.154Z,78.81
2023-09-26T23:50:42.909Z,79.00
2023-09-26T23:52:45.644Z,78.59
2023-09-26T23:54:47.448Z,78.76
2023-09-26T23:56:49.211Z,78.71
2023-09-26T23:58:51.106Z,79.07
